Time;durP1;ratioP1;P1;durP2;ratioP2;P2;SDS_P1;SDS_P2;PMS_P1;PMS_P2;Temp;Humidity;BMP_temperature;BMP_pressure;BME280_temperature;BME280_humidity;BME280_pressure;Samples;Min_cycle;Max_cycle;Signal;HPM_P1;HPM_P2
2021/11/18 00:00:25;;;;;;;4.90;3.90;;;;;;;8.25;73.02;101594.66;5032872;28;20426;-79
2021/11/18 00:02:51;;;;;;;4.13;3.73;;;;;;;8.23;73.06;101584.03;5032577;28;20398;-79
2021/11/18 00:05:20;;;;;;;4.28;3.88;;;;;;;8.26;72.67;101588.22;5032344;28;20486;-79
2021/11/18 00:07:48;;;;;;;5.65;4.60;;;;;;;8.24;72.49;101583.00;5032000;28;20403;-79
2021/11/18 00:10:37;;;;;;;10.18;5.18;;;;;;;8.23;73.22;101591.34;5025988;28;20410;-79
2021/11/18 00:13:05;;;;;;;6.17;4.70;;;;;;;8.22;73.05;101593.19;5033720;28;20937;-79
2021/11/18 00:15:32;;;;;;;6.68;5.18;;;;;;;8.25;73.21;101594.66;5030889;28;20483;-79
2021/11/18 00:18:03;;;;;;;7.07;4.85;;;;;;;8.27;73.37;101608.78;5032513;28;20435;-79
2021/11/18 00:20:38;;;;;;;6.03;5.30;;;;;;;8.25;73.10;101602.75;5033175;28;20465;-80
2021/11/18 00:23:04;;;;;;;7.32;5.63;;;;;;;8.24;72.79;101603.78;5031968;28;20391;-79
2021/11/18 00:25:33;;;;;;;6.93;5.67;;;;;;;8.24;73.61;101606.47;5033252;28;20813;-80
2021/11/18 00:27:59;;;;;;;7.25;5.50;;;;;;;8.24;73.93;101610.00;5032287;28;20938;-80
2021/11/18 00:30:25;;;;;;;8.87;5.90;;;;;;;8.23;73.52;101605.63;5033660;28;20482;-79
2021/11/18 00:32:50;;;;;;;7.28;5.32;;;;;;;8.24;73.86;101603.78;5031293;28;20411;-79
2021/11/18 00:35:21;;;;;;;8.20;6.13;;;;;;;8.25;74.26;101602.75;5033518;28;20383;-79
2021/11/18 00:37:47;;;;;;;7.07;6.07;;;;;;;8.26;73.93;101602.56;5031552;28;20443;-79
2021/11/18 00:40:16;;;;;;;9.35;6.10;;;;;;;8.25;74.08;101602.75;5033234;28;20430;-79
2021/11/18 00:42:41;;;;;;;10.25;6.53;;;;;;;8.24;73.89;101606.47;5030751;28;20415;-79
2021/11/18 00:45:13;;;;;;;8.05;7.15;;;;;;;8.23;74.20;101602.13;5032720;28;20890;-79
2021/11/18 00:47:44;;;;;;;11.90;6.65;;;;;;;8.23;74.42;101592.13;5033373;28;20891;-79
2021/11/18 00:50:13;;;;;;;11.30;7.38;;;;;;;8.25;74.68;101590.09;5033053;28;20870;-79
2021/11/18 00:52:38;;;;;;;10.05;7.28;;;;;;;8.22;75.16;101592.34;5024957;28;20936;-79
2021/11/18 00:55:06;;;;;;;8.18;6.78;;;;;;;8.21;75.14;101591.53;5030351;28;20418;-79
2021/11/18 00:57:33;;;;;;;10.40;6.72;;;;;;;8.22;74.98;101586.94;5032982;28;20391;-79
2021/11/18 00:59:58;;;;;;;8.45;6.82;;;;;;;8.25;75.30;101589.25;5031842;28;20391;-79
2021/11/18 01:02:27;;;;;;;7.93;6.67;;;;;;;8.24;74.97;101590.28;5027188;28;20905;-78
2021/11/18 01:04:52;;;;;;;10.73;6.88;;;;;;;8.25;74.91;101589.25;5030440;28;20423;-79
2021/11/18 01:07:17;;;;;;;9.13;6.90;;;;;;;8.26;75.13;101596.31;5032920;28;20755;-79
2021/11/18 01:09:42;;;;;;;8.57;6.93;;;;;;;8.26;75.28;101601.72;5032254;28;20410;-79
2021/11/18 01:12:10;;;;;;;9.30;7.27;;;;;;;8.26;75.32;101601.72;5032727;28;20542;-79
2021/11/18 01:14:36;;;;;;;7.90;6.60;;;;;;;8.25;75.38;101600.88;5032621;28;20398;-79
2021/11/18 01:17:03;;;;;;;7.97;6.63;;;;;;;8.26;75.63;101607.13;5028533;28;20772;-79
2021/11/18 01:19:29;;;;;;;8.13;6.47;;;;;;;8.27;75.24;101615.00;5030583;28;20490;-80
2021/11/18 01:21:55;;;;;;;7.40;6.43;;;;;;;8.28;75.35;101615.88;5032373;28;20465;-79
2021/11/18 01:24:20;;;;;;;7.50;6.73;;;;;;;8.29;75.52;101610.28;5032303;28;20878;-79
2021/11/18 01:26:46;;;;;;;7.63;6.80;;;;;;;8.31;75.54;101620.88;5032537;28;20765;-79
2021/11/18 01:29:12;;;;;;;7.60;6.78;;;;;;;8.31;75.51;101628.97;5031239;28;20387;-80
2021/11/18 01:31:38;;;;;;;13.80;6.70;;;;;;;8.31;75.41;101626.28;5030624;28;20859;-79
2021/11/18 01:34:03;;;;;;;9.97;6.53;;;;;;;8.29;75.40;101631.91;5029780;28;20518;-79
2021/11/18 01:36:29;;;;;;;10.02;6.65;;;;;;;8.26;75.09;101629.56;5030599;28;20441;-79
2021/11/18 01:38:54;;;;;;;8.88;7.07;;;;;;;8.29;75.17;101628.34;5032304;28;20388;-79
2021/11/18 01:41:26;;;;;;;7.30;6.60;;;;;;;8.27;74.77;101627.69;5031013;28;20410;-79
2021/11/18 01:43:55;;;;;;;9.95;7.07;;;;;;;8.25;75.01;101627.91;5011233;28;20409;-79
2021/11/18 01:46:27;;;;;;;9.05;6.53;;;;;;;8.29;74.81;101631.06;5019576;28;20419;-79
2021/11/18 01:48:54;;;;;;;8.07;6.70;;;;;;;8.29;75.17;101622.97;5031163;28;20403;-79
2021/11/18 01:51:27;;;;;;;8.52;6.40;;;;;;;8.29;75.11;101615.69;5032114;28;20862;-79
2021/11/18 01:53:53;;;;;;;6.50;5.90;;;;;;;8.29;75.06;101620.25;5032120;28;20415;-79
2021/11/18 01:56:24;;;;;;;8.20;5.85;;;;;;;8.30;74.75;101619.19;5030790;28;20453;-79
2021/11/18 01:58:55;;;;;;;7.93;6.03;;;;;;;8.32;74.67;101622.56;5030394;28;20435;-79
2021/11/18 02:01:20;;;;;;;6.20;5.55;;;;;;;8.32;75.06;101620.69;5030927;28;20464;-80
2021/11/18 02:03:46;;;;;;;11.27;5.60;;;;;;;8.28;74.92;101627.53;5030802;28;20478;-79
2021/11/18 02:06:32;;;;;;;5.90;5.30;;;;;;;8.23;74.88;101639.94;5031357;28;20414;-79
2021/11/18 02:08:57;;;;;;;5.38;4.88;;;;;;;8.19;75.23;101639.50;5029770;28;20906;-79
2021/11/18 02:11:29;;;;;;;5.50;4.93;;;;;;;8.21;74.69;101639.28;5030505;28;20395;-79
2021/11/18 02:13:55;;;;;;;6.10;5.28;;;;;;;8.24;74.53;101638.88;5031764;28;20399;-79
2021/11/18 02:16:22;;;;;;;6.77;5.30;;;;;;;8.23;75.18;101629.94;5031467;28;20886;-79
2021/11/18 02:18:47;;;;;;;7.63;5.60;;;;;;;8.20;74.90;101633.03;5031505;28;20464;-79
2021/11/18 02:21:14;;;;;;;5.10;4.43;;;;;;;8.20;75.66;101641.16;5031480;28;20408;-79
2021/11/18 02:23:48;;;;;;;5.85;5.15;;;;;;;8.21;75.45;101644.69;5030302;28;20418;-79
2021/11/18 02:26:14;;;;;;;5.25;4.75;;;;;;;8.17;75.49;101657.75;5029292;28;20427;-79
2021/11/18 02:28:43;;;;;;;5.68;5.13;;;;;;;8.18;75.14;101650.50;5030952;28;20410;-79
2021/11/18 02:31:30;;;;;;;6.03;4.82;;;;;;;8.16;75.55;101650.72;5030115;28;20886;-79
2021/11/18 02:33:56;;;;;;;5.57;4.97;;;;;;;8.16;75.39;101656.09;5031284;28;20790;-79
2021/11/18 02:36:22;;;;;;;7.43;5.10;;;;;;;8.17;75.27;101649.66;5031382;28;20391;-79
2021/11/18 02:38:47;;;;;;;7.77;6.27;;;;;;;8.11;75.70;101660.41;5029689;28;20415;-79
2021/11/18 02:41:15;;;;;;;6.80;5.50;;;;;;;8.16;75.07;101655.28;5029476;28;20399;-80
2021/11/18 02:43:41;;;;;;;6.93;5.50;;;;;;;8.18;75.28;101651.31;5031405;28;20394;-80
2021/11/18 02:46:07;;;;;;;8.35;5.05;;;;;;;8.11;75.48;101649.63;5017187;28;20768;-79
2021/11/18 02:48:32;;;;;;;5.50;4.83;;;;;;;8.14;75.52;101652.75;5030612;28;20453;-79
2021/11/18 02:51:00;;;;;;;7.70;5.47;;;;;;;8.15;75.66;101656.28;5031078;28;20399;-79
2021/11/18 02:53:26;;;;;;;6.18;5.32;;;;;;;8.12;75.64;101652.13;5028706;28;20509;-79
2021/11/18 02:55:53;;;;;;;7.22;5.43;;;;;;;8.15;75.43;101648.19;5030917;28;20391;-79
2021/11/18 02:58:21;;;;;;;6.05;5.32;;;;;;;8.13;75.46;101656.50;5031371;28;20390;-79
2021/11/18 03:01:10;;;;;;;6.97;5.35;;;;;;;8.14;75.58;101663.56;5028520;28;20407;-79
2021/11/18 03:03:37;;;;;;;7.55;5.65;;;;;;;8.17;75.87;101662.31;5026444;28;20407;-80
2021/11/18 03:06:03;;;;;;;7.50;6.18;;;;;;;8.09;75.50;101651.69;5033408;28;20418;-79
2021/11/18 03:08:29;;;;;;;8.13;6.38;;;;;;;8.09;75.71;101651.69;5035096;28;20862;-79
2021/11/18 03:10:56;;;;;;;7.65;6.28;;;;;;;8.12;75.85;101656.69;5033757;28;20411;-79
2021/11/18 03:13:22;;;;;;;7.72;6.45;;;;;;;8.13;76.10;101659.22;5035013;28;20391;-79
2021/11/18 03:15:48;;;;;;;7.20;6.28;;;;;;;8.14;75.43;101665.41;5034527;28;20518;-79
2021/11/18 03:18:14;;;;;;;7.35;6.55;;;;;;;8.10;75.46;101672.28;5033693;28;20426;-80
2021/11/18 03:20:40;;;;;;;8.70;6.67;;;;;;;8.12;76.06;101675.59;5034519;28;20434;-80
2021/11/18 03:23:07;;;;;;;8.05;6.90;;;;;;;8.12;76.03;101673.72;5033566;28;20553;-79
2021/11/18 03:25:35;;;;;;;9.80;6.60;;;;;;;8.12;75.86;101678.28;5034619;28;20410;-79
2021/11/18 03:28:01;;;;;;;10.73;7.15;;;;;;;8.09;76.05;101676.84;5034803;28;20388;-79
2021/11/18 03:30:32;;;;;;;10.85;7.93;;;;;;;8.10;75.86;101678.47;5033846;28;20394;-79
2021/11/18 03:33:00;;;;;;;7.85;7.15;;;;;;;8.09;75.99;101674.13;5032019;28;20537;-79
2021/11/18 03:35:26;;;;;;;8.70;7.57;;;;;;;8.12;76.07;101675.59;5033428;28;20886;-79
2021/11/18 03:37:53;;;;;;;10.13;8.25;;;;;;;8.07;75.80;101667.25;5034576;28;20391;-79
2021/11/18 03:40:18;;;;;;;9.20;7.60;;;;;;;8.07;76.11;101672.66;5034243;28;20453;-79
2021/11/18 03:42:45;;;;;;;8.93;7.40;;;;;;;8.08;75.85;101671.63;5034225;28;20395;-79
2021/11/18 03:45:13;;;;;;;8.77;7.03;;;;;;;8.09;75.99;101678.69;5034446;28;20407;-79
2021/11/18 03:47:38;;;;;;;8.90;7.10;;;;;;;8.10;75.87;101681.19;5021124;28;20465;-79
2021/11/18 03:50:05;;;;;;;12.13;8.13;;;;;;;8.12;76.00;101675.59;5034360;28;20793;-79
2021/11/18 03:52:30;;;;;;;10.75;7.63;;;;;;;8.07;75.62;101675.34;5033889;28;20403;-79
2021/11/18 03:54:55;;;;;;;10.77;7.80;;;;;;;8.03;76.45;101685.72;5033526;28;20838;-79
2021/11/18 03:57:20;;;;;;;8.23;7.40;;;;;;;8.03;75.98;101684.91;5031335;28;20468;-79
2021/11/18 03:59:48;;;;;;;8.18;7.20;;;;;;;8.04;76.33;101700.88;5020721;28;20387;-79
2021/11/18 04:02:14;;;;;;;8.43;7.40;;;;;;;8.02;76.33;101705.66;5033977;28;20770;-79
2021/11/18 04:04:43;;;;;;;9.97;8.03;;;;;;;8.06;76.15;101706.09;5033358;28;20395;-79
2021/11/18 04:07:10;;;;;;;7.82;7.03;;;;;;;8.09;76.23;101708.41;5031728;28;20407;-79
2021/11/18 04:09:36;;;;;;;9.20;7.28;;;;;;;8.09;75.79;101711.94;5032686;28;20486;-79
2021/11/18 04:12:04;;;;;;;9.65;7.35;;;;;;;8.08;76.13;101710.25;5032109;28;20398;-80
2021/11/18 04:14:31;;;;;;;9.00;7.65;;;;;;;8.08;76.31;101709.41;5033602;28;20758;-80
2021/11/18 04:16:57;;;;;;;9.35;7.88;;;;;;;8.06;75.94;101711.50;5025744;28;20403;-78
2021/11/18 04:19:23;;;;;;;9.38;8.25;;;;;;;8.04;76.08;101705.44;5026175;28;20763;-79
2021/11/18 04:21:50;;;;;;;9.00;7.63;;;;;;;8.03;76.01;101714.59;5028090;28;20867;-79
2021/11/18 04:24:19;;;;;;;10.30;8.02;;;;;;;8.06;75.65;101706.94;5033635;28;20846;-79
2021/11/18 04:26:45;;;;;;;8.88;7.20;;;;;;;8.04;76.35;101703.56;5032129;28;20431;-80
2021/11/18 04:29:11;;;;;;;10.50;7.30;;;;;;;8.09;75.56;101708.41;5033617;28;20448;-79
2021/11/18 04:31:36;;;;;;;8.90;7.30;;;;;;;8.10;75.73;101704.66;5033662;28;20396;-80
2021/11/18 04:34:02;;;;;;;7.93;6.90;;;;;;;8.10;75.69;101689.28;5033612;28;20403;-79
2021/11/18 04:36:28;;;;;;;9.82;7.43;;;;;;;8.07;75.95;101689.69;5031091;28;20411;-79
2021/11/18 04:38:55;;;;;;;10.65;7.97;;;;;;;8.05;76.05;101693.63;5033494;28;20383;-79
2021/11/18 04:41:22;;;;;;;8.07;6.97;;;;;;;8.07;76.47;101708.56;5033267;28;20402;-79
2021/11/18 04:43:48;;;;;;;10.73;6.95;;;;;;;8.08;76.40;101722.91;5031448;28;20454;-79
2021/11/18 04:46:14;;;;;;;10.30;7.47;;;;;;;8.08;76.01;101717.50;5033079;28;20422;-79
2021/11/18 04:48:40;;;;;;;10.80;6.85;;;;;;;8.08;75.66;101712.13;5032006;28;20902;-79
2021/11/18 04:51:09;;;;;;;9.75;7.93;;;;;;;8.11;75.52;101722.50;5031902;28;20813;-80
2021/11/18 04:53:35;;;;;;;7.82;6.95;;;;;;;8.13;75.54;101723.19;5033076;28;20438;-79
2021/11/18 04:56:03;;;;;;;10.50;7.50;;;;;;;8.11;75.47;101727.91;5033006;28;20422;-79
2021/11/18 04:58:28;;;;;;;8.55;7.65;;;;;;;8.11;75.38;101725.22;5017398;28;20805;-79
2021/11/18 05:00:56;;;;;;;7.82;7.13;;;;;;;8.08;75.60;101721.06;5032611;28;20407;-79
2021/11/18 05:03:23;;;;;;;10.00;7.32;;;;;;;8.04;75.52;101708.97;5031886;28;20897;-79
2021/11/18 05:05:49;;;;;;;9.10;7.40;;;;;;;8.02;76.19;101715.59;5021334;28;20439;-80
2021/11/18 05:08:15;;;;;;;10.23;7.60;;;;;;;8.04;75.96;101708.97;5030028;28;20919;-79
2021/11/18 05:10:45;;;;;;;11.45;9.70;;;;;;;8.08;75.85;101709.41;5030939;28;20433;-80
2021/11/18 05:13:11;;;;;;;11.77;9.13;;;;;;;8.11;75.60;101719.81;5032477;28;20731;-79
2021/11/18 05:15:40;;;;;;;16.08;11.18;;;;;;;8.11;76.29;101726.06;5022092;28;20822;-79
2021/11/18 05:18:07;;;;;;;19.20;12.68;;;;;;;8.10;75.69;101713.56;5021157;28;20418;-79
2021/11/18 05:20:33;;;;;;;17.70;13.07;;;;;;;8.12;75.97;101721.50;5029823;28;20835;-79
2021/11/18 05:23:00;;;;;;;16.30;12.43;;;;;;;8.12;76.11;101725.03;5023569;28;20786;-79
2021/11/18 05:25:28;;;;;;;12.02;9.55;;;;;;;8.10;76.28;101724.38;5031116;28;20464;-80
2021/11/18 05:27:55;;;;;;;12.98;9.23;;;;;;;8.09;76.17;101728.13;5031764;28;20391;-79
2021/11/18 05:30:23;;;;;;;11.07;8.43;;;;;;;8.11;76.05;101741.41;5030489;28;20878;-79
2021/11/18 05:32:49;;;;;;;10.52;9.43;;;;;;;8.13;76.11;101745.63;5030960;28;20483;-79
2021/11/18 05:35:15;;;;;;;13.80;10.00;;;;;;;8.14;76.24;101747.25;5031929;28;20832;-79
2021/11/18 05:37:40;;;;;;;13.43;10.00;;;;;;;8.15;76.44;101748.09;5031428;28;20992;-79
2021/11/18 05:40:08;;;;;;;16.30;11.95;;;;;;;8.12;76.07;101753.91;5031727;28;20411;-79
2021/11/18 05:42:34;;;;;;;15.18;11.32;;;;;;;8.11;76.60;101749.50;5030692;28;20830;-79
2021/11/18 05:45:08;;;;;;;13.18;9.45;;;;;;;8.11;76.39;101747.66;5008070;28;20969;-79
2021/11/18 05:47:33;;;;;;;14.10;9.90;;;;;;;8.11;76.17;101744.13;5027104;28;20415;-79
2021/11/18 05:49:59;;;;;;;7.97;6.87;;;;;;;8.11;75.65;101741.41;5025463;28;20535;-79
2021/11/18 05:52:28;;;;;;;8.70;7.03;;;;;;;8.11;75.75;101739.56;5030495;28;20862;-79
2021/11/18 05:54:54;;;;;;;8.15;6.80;;;;;;;8.10;75.30;101731.66;5029166;28;20399;-79
2021/11/18 05:57:19;;;;;;;8.10;6.60;;;;;;;8.07;74.83;101735.56;5030755;28;20908;-78
2021/11/18 05:59:45;;;;;;;8.15;7.07;;;;;;;8.07;75.04;101740.13;5028621;28;20505;-79
2021/11/18 06:02:10;;;;;;;7.97;7.17;;;;;;;8.05;74.92;101737.66;5031792;28;20434;-79
2021/11/18 06:04:35;;;;;;;12.43;8.70;;;;;;;8.04;75.41;101741.38;5031209;28;20491;-81
2021/11/18 06:07:01;;;;;;;13.23;8.90;;;;;;;8.03;75.87;101738.88;5031362;28;20399;-82
2021/11/18 06:09:26;;;;;;;15.83;9.00;;;;;;;8.01;75.99;101739.06;5032044;28;20402;-82
2021/11/18 06:11:51;;;;;;;11.73;9.07;;;;;;;7.98;76.28;101733.22;5031529;28;20406;-81
2021/11/18 06:14:17;;;;;;;9.90;8.70;;;;;;;7.96;76.02;101746.94;5028713;28;20945;-80
2021/11/18 06:16:42;;;;;;;10.30;8.37;;;;;;;7.95;76.33;101741.72;5030290;28;20415;-81
2021/11/18 06:19:08;;;;;;;12.13;8.60;;;;;;;7.96;75.78;101748.78;5031071;28;20881;-79
2021/11/18 06:21:40;;;;;;;8.15;7.07;;;;;;;7.96;75.89;101756.91;5031126;28;20406;-80
2021/11/18 06:24:07;;;;;;;8.90;6.90;;;;;;;7.98;75.89;101754.81;5031846;28;20715;-79
2021/11/18 06:26:32;;;;;;;8.10;7.20;;;;;;;8.00;75.73;101756.28;5031332;28;20411;-80
2021/11/18 06:28:58;;;;;;;8.73;7.27;;;;;;;8.02;75.76;101758.81;5028940;28;20414;-80
2021/11/18 06:31:24;;;;;;;13.25;9.50;;;;;;;8.05;75.91;101761.94;5031235;28;20546;-80
2021/11/18 06:33:51;;;;;;;9.67;7.57;;;;;;;7.99;75.95;101770.84;5029874;28;20542;-81
2021/11/18 06:36:17;;;;;;;12.15;8.82;;;;;;;7.95;76.72;101772.25;5029286;28;20439;-81
2021/11/18 06:38:45;;;;;;;10.25;8.02;;;;;;;7.95;76.32;101779.50;5022993;28;20419;-81
2021/11/18 06:41:13;;;;;;;11.70;7.90;;;;;;;7.97;76.64;101772.06;5022450;28;20442;-81
2021/11/18 06:43:38;;;;;;;9.23;7.18;;;;;;;7.98;76.50;101771.03;5028561;28;20403;-81
2021/11/18 06:46:04;;;;;;;10.30;6.68;;;;;;;8.04;76.42;101768.38;5029584;28;20418;-81
2021/11/18 06:48:30;;;;;;;8.05;6.60;;;;;;;8.01;76.54;101768.75;5029741;28;20437;-82
2021/11/18 06:51:02;;;;;;;8.73;6.22;;;;;;;7.97;76.39;101774.78;5031248;28;20403;-82
2021/11/18 06:53:29;;;;;;;8.98;6.53;;;;;;;7.98;76.05;101774.56;5030189;28;20803;-82
2021/11/18 06:55:54;;;;;;;8.52;6.20;;;;;;;8.00;76.38;101777.06;5028181;28;20497;-82
2021/11/18 06:58:20;;;;;;;6.97;6.13;;;;;;;8.09;75.87;101775.88;5030470;28;20515;-82
2021/11/18 07:00:45;;;;;;;10.10;6.53;;;;;;;8.07;76.75;101775.22;5030961;28;20399;-82
2021/11/18 07:03:11;;;;;;;8.90;6.93;;;;;;;8.08;76.52;101772.34;5027090;28;20473;-83
2021/11/18 07:05:38;;;;;;;9.75;7.95;;;;;;;8.08;76.56;101785.84;5028440;28;20881;-83
2021/11/18 07:08:06;;;;;;;7.45;6.28;;;;;;;8.07;76.47;101784.16;5030714;28;20453;-83
2021/11/18 07:10:32;;;;;;;6.97;6.22;;;;;;;8.08;76.75;101798.50;5030780;28;20387;-83
2021/11/18 07:12:57;;;;;;;7.37;6.47;;;;;;;8.10;77.17;101801.88;5028024;28;20416;-84
2021/11/18 07:15:24;;;;;;;11.90;7.50;;;;;;;8.10;77.15;101799.97;5030841;28;20925;-84
2021/11/18 07:17:50;;;;;;;10.07;7.60;;;;;;;8.11;76.82;101801.66;5028726;28;20398;-84
2021/11/18 07:20:15;;;;;;;11.07;7.70;;;;;;;8.16;77.02;101815.41;5030543;28;20808;-86
2021/11/18 07:22:41;;;;;;;17.00;10.80;;;;;;;8.17;76.57;101819.78;5030703;28;20399;-83
2021/11/18 07:25:13;;;;;;;14.37;9.67;;;;;;;8.21;76.84;101833.72;5029757;28;20407;-83
2021/11/18 07:27:38;;;;;;;8.38;6.50;;;;;;;8.21;76.49;101836.41;5030411;28;20399;-82
2021/11/18 07:30:06;;;;;;;7.47;5.82;;;;;;;8.22;76.86;101835.41;5024042;28;20437;-84
2021/11/18 07:32:31;;;;;;;9.90;8.50;;;;;;;8.24;76.80;101836.88;5025244;28;20399;-83
2021/11/18 07:34:59;;;;;;;8.30;6.17;;;;;;;8.25;77.01;101830.44;5022981;28;20408;-83
2021/11/18 07:37:24;;;;;;;8.68;6.97;;;;;;;8.26;76.93;101834.81;5027792;28;20403;-84
2021/11/18 07:39:49;;;;;;;8.77;5.95;;;;;;;8.30;76.01;101841.50;5029803;28;20874;-84
2021/11/18 07:42:15;;;;;;;7.33;6.10;;;;;;;8.37;75.94;101840.72;5029342;28;20401;-83
2021/11/18 07:44:40;;;;;;;7.75;6.20;;;;;;;8.39;76.42;101838.66;5028999;28;20890;-84
2021/11/18 07:47:05;;;;;;;8.80;5.80;;;;;;;8.42;75.92;101843.69;5029691;28;20399;-83
2021/11/18 07:49:31;;;;;;;6.93;5.90;;;;;;;8.43;75.64;101848.06;5033238;28;20402;-84
2021/11/18 07:56:05;;;;;;;9.93;5.82;;;;;;;8.39;76.04;101852.19;5009543;28;21682;-84
2021/11/18 07:58:31;;;;;;;6.50;5.53;;;;;;;8.41;76.01;101850.09;5026293;28;20461;-84
2021/11/18 08:00:57;;;;;;;9.68;5.72;;;;;;;8.42;75.85;101846.38;5033623;28;20399;-84
2021/11/18 08:03:23;;;;;;;7.80;5.68;;;;;;;8.45;75.81;101852.22;5034124;28;20387;-84
2021/11/18 08:05:49;;;;;;;7.95;5.90;;;;;;;8.39;76.30;101862.97;5033245;28;20415;-84
2021/11/18 08:12:04;;;;;;;5.85;5.30;;;;;;;8.31;76.39;101850.44;4931634;29;20408;-84
2021/11/18 08:14:31;;;;;;;6.60;5.43;;;;;;;8.30;77.00;101863.13;4962455;28;20447;-84
2021/11/18 08:16:57;;;;;;;10.48;7.03;;;;;;;8.30;77.13;101855.00;5025246;28;20406;-84
2021/11/18 08:19:23;;;;;;;17.45;10.23;;;;;;;8.32;76.50;101858.38;5032053;28;20449;-84
2021/11/18 08:21:50;;;;;;;16.77;9.83;;;;;;;8.38;76.93;101866.69;5032814;28;20418;-84
2021/11/18 08:24:17;;;;;;;17.40;9.77;;;;;;;8.40;76.31;101865.47;5030107;28;20477;-84
2021/11/18 08:26:43;;;;;;;16.25;8.05;;;;;;;8.44;76.81;101863.22;5032674;28;20473;-84
2021/11/18 08:29:11;;;;;;;7.80;6.95;;;;;;;8.45;76.03;101871.13;5031629;28;20398;-84
2021/11/18 08:31:38;;;;;;;7.37;5.73;;;;;;;8.48;75.44;101872.59;5033266;28;20406;-84
2021/11/18 08:34:04;;;;;;;6.90;6.13;;;;;;;8.51;76.03;101870.34;5031223;28;20497;-84
2021/11/18 08:36:39;;;;;;;8.47;6.63;;;;;;;8.55;74.71;101868.09;5032968;28;20499;-83
2021/11/18 08:39:09;;;;;;;8.93;6.70;;;;;;;8.59;74.91;101859.41;5032119;28;20403;-83
2021/11/18 08:41:35;;;;;;;10.13;6.45;;;;;;;8.64;74.48;101872.28;5033381;28;20392;-82
2021/11/18 08:44:01;;;;;;;9.27;6.73;;;;;;;8.70;74.86;101871.50;5031063;28;20407;-82
2021/11/18 08:46:28;;;;;;;9.15;6.30;;;;;;;8.72;74.82;101881.09;5031974;28;21007;-84
2021/11/18 08:49:00;;;;;;;8.35;6.40;;;;;;;8.73;74.99;101881.91;5032879;28;20469;-83
2021/11/18 08:51:27;;;;;;;9.57;7.55;;;;;;;8.81;75.26;101887.19;5031018;28;20465;-84
2021/11/18 08:53:55;;;;;;;8.52;7.38;;;;;;;8.83;74.99;101880.53;5031679;28;20411;-82
2021/11/18 08:56:21;;;;;;;9.95;7.10;;;;;;;8.90;74.27;101880.56;5032190;28;20403;-84
2021/11/18 08:58:49;;;;;;;9.05;7.10;;;;;;;8.98;74.46;101888.53;5032637;28;20391;-85
2021/11/18 09:01:21;;;;;;;7.32;6.57;;;;;;;9.06;74.20;101892.91;5031452;28;20447;-84
2021/11/18 09:03:46;;;;;;;11.47;6.80;;;;;;;9.08;73.37;101893.56;5029642;28;20521;-84
2021/11/18 09:06:15;;;;;;;11.57;8.00;;;;;;;9.06;73.73;101890.22;5032008;28;20834;-84
2021/11/18 09:08:40;;;;;;;12.55;9.45;;;;;;;9.07;73.92;101891.88;5032461;28;20418;-83
2021/11/18 09:11:09;;;;;;;14.33;10.10;;;;;;;9.06;73.97;101895.63;5030939;28;20469;-84
2021/11/18 09:13:36;;;;;;;12.52;8.63;;;;;;;9.05;74.51;101896.69;5030676;28;20445;-84
2021/11/18 09:16:03;;;;;;;13.35;7.25;;;;;;;9.04;74.20;101897.69;5031345;28;20413;-83
2021/11/18 09:18:28;;;;;;;15.50;10.40;;;;;;;9.06;73.67;101896.47;5031001;28;20399;-83
2021/11/18 09:20:56;;;;;;;11.93;9.30;;;;;;;9.11;73.87;101891.31;5033836;28;21005;-84
2021/11/18 09:23:27;;;;;;;12.63;7.93;;;;;;;9.16;74.21;101902.34;5031568;28;20446;-84
2021/11/18 09:25:53;;;;;;;9.15;6.85;;;;;;;9.24;73.19;101887.81;5032083;28;20407;-84
2021/11/18 09:28:21;;;;;;;10.80;7.03;;;;;;;9.32;73.51;101887.63;5029993;28;20391;-83
2021/11/18 09:31:45;;;;;;;;;;;;;;;;;;;;;
2021/11/18 09:34:11;;;;;;;7.73;5.63;;;;;;;9.59;73.30;101891.25;5028741;28;20416;-84
2021/11/18 09:36:37;;;;;;;7.10;5.95;;;;;;;9.73;72.77;101885.69;5023378;28;20457;-84
2021/11/18 09:39:05;;;;;;;6.93;5.90;;;;;;;9.71;71.99;101890.50;5031123;28;20407;-84
2021/11/18 09:41:52;;;;;;;6.67;5.87;;;;;;;9.77;72.47;101896.97;5031951;28;20470;-84
2021/11/18 09:44:26;;;;;;;6.43;5.82;;;;;;;9.76;71.74;101888.00;5030977;28;20404;-84
2021/11/18 09:47:20;;;;;;;9.90;7.85;;;;;;;9.68;71.42;101890.88;5029771;28;20934;-84
2021/11/18 09:50:01;;;;;;;6.45;5.72;;;;;;;9.69;71.18;101894.44;5025065;28;20411;-84
2021/11/18 09:52:41;;;;;;;7.33;6.27;;;;;;;9.77;71.63;101900.50;5030079;28;20396;-84
2021/11/18 09:55:19;;;;;;;9.73;6.60;;;;;;;9.82;71.58;101908.00;5029103;28;20402;-84
2021/11/18 09:58:17;;;;;;;8.02;6.30;;;;;;;9.84;71.31;101917.59;5031814;28;20398;-84
2021/11/18 10:01:19;;;;;;;7.18;6.47;;;;;;;9.85;71.98;101905.72;5031810;28;20537;-84
2021/11/18 10:04:08;;;;;;;5.13;4.73;;;;;;;9.83;72.10;101909.66;5024372;28;20409;-84
2021/11/18 10:06:38;;;;;;;5.20;4.68;;;;;;;9.89;71.87;101911.56;5030373;28;20884;-84
2021/11/18 10:09:39;;;;;;;6.65;4.82;;;;;;;10.07;71.25;101908.25;5028505;28;20411;-84
2021/11/18 10:12:38;;;;;;;5.78;5.18;;;;;;;10.26;69.78;101896.63;4999093;28;20413;-83
2021/11/18 10:15:13;;;;;;;6.47;4.40;;;;;;;10.41;69.00;101900.81;5028377;28;20429;-84
2021/11/18 10:17:47;;;;;;;6.75;5.45;;;;;;;10.65;68.36;101906.63;5031566;28;20529;-84
2021/11/18 10:20:19;;;;;;;9.98;6.43;;;;;;;10.78;68.26;101902.03;5028487;28;20414;-84
2021/11/18 10:23:43;;;;;;;9.52;5.93;;;;;;;10.95;67.49;101907.84;5030169;28;20403;-85
2021/11/18 10:26:14;;;;;;;6.88;6.05;;;;;;;10.98;67.60;101906.56;4977785;28;20420;-84
2021/11/18 10:28:45;;;;;;;7.03;5.57;;;;;;;11.07;67.44;101902.56;5029678;28;20410;-84
2021/11/18 10:31:16;;;;;;;7.35;6.00;;;;;;;11.20;66.78;101891.69;5028951;28;20413;-84
2021/11/18 10:34:22;;;;;;;10.55;6.50;;;;;;;11.14;65.58;101898.81;5031655;28;20790;-84
2021/11/18 10:37:02;;;;;;;9.23;6.75;;;;;;;11.07;66.06;101892.56;5039809;28;20494;-84
2021/11/18 10:39:41;;;;;;;6.53;5.28;;;;;;;11.16;65.86;101880.44;5030183;28;20429;-83
2021/11/18 10:42:28;;;;;;;5.50;4.95;;;;;;;11.47;64.57;101879.66;5031590;28;20719;-84
2021/11/18 10:45:38;;;;;;;;;;;;;;;;;;;;;
2021/11/18 10:49:17;;;;;;;7.07;4.85;;;;;;;11.92;63.83;101875.88;5034149;28;20496;-84
2021/11/18 10:51:45;;;;;;;5.15;4.07;;;;;;;11.56;64.82;101881.06;5021800;28;20415;-85
2021/11/18 10:54:14;;;;;;;5.85;4.60;;;;;;;11.45;65.51;101884.50;5029860;28;20419;-84
2021/11/18 11:04:08;;;;;;;6.45;4.75;;;;;;;11.00;66.95;101870.03;4988200;28;20439;-83
2021/11/18 11:07:02;;;;;;;7.30;4.45;;;;;;;10.94;66.71;101879.03;5030576;28;20469;-81
2021/11/18 11:09:35;;;;;;;5.93;4.93;;;;;;;10.92;66.06;101870.28;5015430;28;20415;-83
2021/11/18 11:12:00;;;;;;;7.30;5.80;;;;;;;10.85;65.92;101867.59;5030779;28;20394;-83
2021/11/18 11:14:47;;;;;;;9.30;5.20;;;;;;;10.88;66.75;101860.91;5029727;28;20407;-84
2021/11/18 11:17:23;;;;;;;6.00;4.82;;;;;;;10.98;66.50;101852.31;5030375;28;20857;-85
2021/11/18 11:19:54;;;;;;;5.53;4.20;;;;;;;10.96;66.46;101857.13;5036999;28;20409;-87
2021/11/18 11:23:07;;;;;;;4.87;4.30;;;;;;;10.87;66.85;101862.78;5043187;28;20422;-81
2021/11/18 11:25:51;;;;;;;6.68;5.32;;;;;;;10.93;65.98;101863.81;5033035;28;20759;-83
2021/11/18 11:28:50;;;;;;;5.90;5.03;;;;;;;11.00;66.18;101858.38;5034064;28;20398;-83
2021/11/18 11:31:47;;;;;;;5.65;5.03;;;;;;;10.83;66.88;101860.72;5033047;28;20410;-87
2021/11/18 11:34:29;;;;;;;9.00;6.45;;;;;;;10.68;67.38;101855.53;5031544;28;20406;-87
2021/11/18 11:37:32;;;;;;;6.90;6.20;;;;;;;10.61;67.83;101856.56;5032209;28;20774;-88
2021/11/18 11:40:06;;;;;;;8.45;6.63;;;;;;;10.50;68.43;101854.53;5023045;28;20486;-87
2021/11/18 11:43:13;;;;;;;8.55;6.05;;;;;;;10.42;68.64;101847.44;5033752;28;20395;-84
2021/11/18 11:45:57;;;;;;;8.18;6.63;;;;;;;10.38;67.63;101855.16;5028833;28;20486;-85
2021/11/18 11:48:43;;;;;;;6.50;5.78;;;;;;;10.41;67.87;101862.03;5029421;28;20431;-86
2021/11/18 11:51:27;;;;;;;8.85;6.05;;;;;;;10.41;67.82;101860.16;5033811;28;20405;-87
2021/11/18 11:54:30;;;;;;;10.03;5.87;;;;;;;10.42;68.44;101861.00;5032063;28;20842;-86
2021/11/18 11:57:19;;;;;;;12.13;6.07;;;;;;;10.40;68.66;101860.38;5023814;28;20508;-86
2021/11/18 11:59:50;;;;;;;7.35;6.38;;;;;;;10.44;67.86;101868.94;5022809;28;20403;-85
2021/11/18 12:02:37;;;;;;;8.70;6.85;;;;;;;10.48;67.93;101870.16;5028223;28;20890;-85